Airfield :
LOGIN :

Register | Disclaimer

   EN    FR    IT 

 










Legend :    VFR   Marginal VFR   IFR   Intensive IFR   Very Intensive IFR
Visi :
Ceiling :
>= 8 km
>= 3000ft
5 to 8 km
1000 to 3000 ft
1500m to 5 km
500 to 1000 ft
800 to 1500m
200 to 500 ft
< 800m
< 200 ft
Symbols :   Thunderstorms  Fog  Heavy snow  Heavy precipitations  Wind > 20 kt
SIGMETs :     Misc.  Thunderstorms  Icing  Turbulence  Mountain Waves  Volcanic Ashes






- Airport Elevation : 526 ft
- IATA code : LTN


EGGW - London Luton

CURRENT METAR :
  • 100920Z AUTO 14007KT 110V170 9999 NCD 15/08 Q1026

EXPIRED METARs :
  • 100850Z AUTO 14007KT 110V180 9999 NCD 14/08 Q1026
  • 100820Z AUTO 15009KT 9999 NCD 14/08 Q1025
  • 100750Z AUTO 13008KT 9999 NCD 11/08 Q1026
  • 100720Z AUTO 13009KT 8000 NCD 09/07 Q1026
  • 100650Z AUTO 13007KT 7000 NCD 08/07 Q1026

TAF TAF EGGW
Valid from the 10 at 06:00 until the 11 at 06:00 UTC


100501Z 1006/1106 12009KT 4000 HZ NSC
BECMG 1006/1009 9999 NSW
TEMPO 1021/1106 6000
ATIS : +44 1582 395 204



MET'MAP, your aeronautical weather chart ! - Copyright ORBIFLY December 2007 - Disclaimer

ORBIFLY MET'MAP TEAM :

Programming & Development : Alexandra Zaïnal
Concept & original design : Baudouin d'Aumeries
Assistance for programming : Marc-Olivier Méhu
Technical & hardware support : Manuel Goepfert

Contact : metmap@orbifly.com




SOURCES & CREDITS :

   NOAA